Time;durP1;ratioP1;P1;durP2;ratioP2;P2;SDS_P1;SDS_P2;PMS_P1;PMS_P2;Temp;Humidity;BMP_temperature;BMP_pressure;BME280_temperature;BME280_humidity;BME280_pressure;Samples;Min_cycle;Max_cycle;Signal;HPM_P1;HPM_P2
2021/04/17 00:02:02;;;;;;;2.03;1.43;;;4.20;99.90;;;;;;5013263;28;20180;-83
2021/04/17 00:04:30;;;;;;;1.90;1.07;;;4.10;99.90;;;;;;4998011;28;20199;-85
2021/04/17 00:06:56;;;;;;;1.73;1.30;;;4.10;99.90;;;;;;4997602;28;20172;-84
2021/04/17 00:09:25;;;;;;;2.03;1.00;;;4.00;99.90;;;;;;4997602;28;20579;-84
2021/04/17 00:11:53;;;;;;;2.23;1.60;;;4.00;99.90;;;;;;5002143;28;20184;-83
2021/04/17 00:14:26;;;;;;;1.57;0.70;;;4.00;99.90;;;;;;5001357;28;20184;-82
2021/04/17 00:16:52;;;;;;;1.97;1.53;;;4.00;99.90;;;;;;5010907;28;20180;-83
2021/04/17 00:19:18;;;;;;;1.83;1.33;;;3.80;99.90;;;;;;4998763;28;20215;-84
2021/04/17 00:21:43;;;;;;;1.57;1.10;;;3.80;99.90;;;;;;5000596;28;20677;-82
2021/04/17 00:24:09;;;;;;;1.67;1.10;;;3.80;99.90;;;;;;5005367;28;20175;-83
2021/04/17 00:26:35;;;;;;;1.93;0.73;;;3.70;99.90;;;;;;5000936;28;20372;-83
2021/04/17 00:29:02;;;;;;;1.37;1.13;;;3.70;99.90;;;;;;5000596;28;20208;-82
2021/04/17 00:31:28;;;;;;;0.87;0.70;;;3.70;99.90;;;;;;5001632;28;20237;-83
2021/04/17 00:33:54;;;;;;;1.00;0.70;;;3.60;99.90;;;;;;5000367;28;20184;-83
2021/04/17 00:36:19;;;;;;;3.07;1.10;;;3.60;99.90;;;;;;5002029;28;20195;-84
2021/04/17 00:38:45;;;;;;;2.90;1.03;;;3.60;99.90;;;;;;4999529;28;20208;-83
2021/04/17 00:41:11;;;;;;;1.93;1.10;;;3.60;99.90;;;;;;4998956;28;20915;-83
2021/04/17 00:43:36;;;;;;;1.60;0.73;;;3.70;99.90;;;;;;5005338;28;20184;-82
2021/04/17 00:46:02;;;;;;;0.83;0.80;;;3.70;99.90;;;;;;4997759;28;20188;-84
2021/04/17 00:48:28;;;;;;;1.17;0.70;;;3.70;99.90;;;;;;4995319;28;20188;-84
2021/04/17 00:50:53;;;;;;;1.07;0.97;;;3.70;99.90;;;;;;4996279;28;20199;-83
2021/04/17 00:53:20;;;;;;;1.23;1.10;;;3.70;99.90;;;;;;4997647;28;20184;-84
2021/04/17 00:55:45;;;;;;;0.60;0.47;;;3.70;99.90;;;;;;4995662;28;20219;-84
2021/04/17 00:58:11;;;;;;;0.67;0.67;;;3.70;99.90;;;;;;4995315;28;20257;-83
2021/04/17 01:00:37;;;;;;;0.90;0.70;;;3.60;99.90;;;;;;4995548;28;20195;-83
2021/04/17 01:03:21;;;;;;;0.97;0.70;;;3.60;99.90;;;;;;5003468;28;20243;-84
2021/04/17 01:05:51;;;;;;;0.77;0.67;;;3.60;99.90;;;;;;4997017;28;20274;-84
2021/04/17 01:08:42;;;;;;;1.20;0.70;;;3.50;99.90;;;;;;4997635;28;20247;-84
2021/04/17 01:11:15;;;;;;;1.47;0.80;;;3.50;99.90;;;;;;4992189;28;20255;-84
2021/04/17 01:13:42;;;;;;;1.47;0.83;;;3.50;99.90;;;;;;4994887;28;20192;-84
2021/04/17 01:16:08;;;;;;;0.80;0.60;;;3.40;99.90;;;;;;4995693;28;20187;-84
2021/04/17 01:18:35;;;;;;;0.87;0.80;;;3.20;99.90;;;;;;4998472;28;20200;-81
2021/04/17 01:21:02;;;;;;;1.30;1.00;;;3.20;99.90;;;;;;4996260;28;20271;-82
2021/04/17 01:23:37;;;;;;;1.00;1.00;;;3.20;99.90;;;;;;4993920;28;20191;-81
2021/04/17 01:26:07;;;;;;;0.77;0.50;;;3.10;99.90;;;;;;5003873;28;20180;-84
2021/04/17 01:28:36;;;;;;;0.70;0.57;;;3.00;99.90;;;;;;4996098;28;20584;-82
2021/04/17 01:31:04;;;;;;;0.50;0.50;;;3.00;99.90;;;;;;4997741;28;20267;-82
2021/04/17 01:33:33;;;;;;;0.33;0.33;;;3.00;99.90;;;;;;4998129;28;20191;-83
2021/04/17 01:36:02;;;;;;;2.83;0.83;;;3.00;99.90;;;;;;4995893;28;20203;-81
2021/04/17 01:38:33;;;;;;;1.20;0.70;;;3.10;99.90;;;;;;4995894;28;20200;-81
2021/04/17 01:41:05;;;;;;;2.37;1.27;;;3.10;99.90;;;;;;4996913;28;20173;-81
2021/04/17 01:43:32;;;;;;;1.47;0.67;;;3.10;99.90;;;;;;4996940;28;20291;-83
2021/04/17 01:46:09;;;;;;;1.13;0.60;;;3.10;99.90;;;;;;5013236;28;20177;-82
2021/04/17 01:48:36;;;;;;;1.90;0.77;;;3.20;99.90;;;;;;4996361;28;20187;-81
2021/04/17 01:51:03;;;;;;;1.17;0.70;;;3.20;99.90;;;;;;4994894;28;20192;-82
2021/04/17 01:53:31;;;;;;;1.23;0.80;;;3.30;99.90;;;;;;4995557;28;20359;-82
2021/04/17 01:55:59;;;;;;;0.73;0.73;;;3.40;99.90;;;;;;4996359;28;20186;-82
2021/04/17 01:58:27;;;;;;;0.63;0.60;;;3.40;99.90;;;;;;4994987;28;20204;-82
2021/04/17 02:00:55;;;;;;;0.70;0.70;;;3.40;99.90;;;;;;4996603;28;20202;-82
2021/04/17 02:03:22;;;;;;;1.73;1.27;;;3.50;99.90;;;;;;4995509;28;20180;-81
2021/04/17 02:05:51;;;;;;;1.03;0.80;;;3.50;99.90;;;;;;5074631;23;20242;-82
2021/04/17 02:08:17;;;;;;;0.80;0.73;;;3.40;99.90;;;;;;5073462;23;20241;-83
2021/04/17 02:10:45;;;;;;;0.87;0.83;;;3.50;99.90;;;;;;5016120;28;20208;-84
2021/04/17 02:13:12;;;;;;;1.47;1.03;;;3.60;99.90;;;;;;5007749;28;20192;-84
2021/04/17 02:15:39;;;;;;;1.57;0.97;;;3.60;99.90;;;;;;5024535;28;20579;-84
2021/04/17 02:18:15;;;;;;;1.67;1.23;;;3.60;99.90;;;;;;5006457;28;20207;-83
2021/04/17 02:20:45;;;;;;;2.10;1.27;;;3.60;99.90;;;;;;5023135;28;20261;-82
2021/04/17 02:23:12;;;;;;;1.17;1.07;;;3.60;99.90;;;;;;5005681;28;20191;-83
2021/04/17 02:25:38;;;;;;;2.57;1.20;;;3.60;99.90;;;;;;5014657;28;20227;-84
2021/04/17 02:28:06;;;;;;;2.13;1.07;;;3.60;99.90;;;;;;5005286;28;20187;-84
2021/04/17 02:30:31;;;;;;;1.20;1.10;;;3.60;99.90;;;;;;5005295;28;20270;-84
2021/04/17 02:33:00;;;;;;;2.17;1.23;;;3.70;99.90;;;;;;5006968;28;20279;-84
2021/04/17 02:35:26;;;;;;;1.27;1.03;;;3.70;99.90;;;;;;5008275;28;20215;-84
2021/04/17 02:37:52;;;;;;;3.23;1.30;;;3.80;99.90;;;;;;5000305;28;20210;-83
2021/04/17 02:40:17;;;;;;;1.57;1.23;;;3.80;99.90;;;;;;5007001;28;20210;-84
2021/04/17 02:42:43;;;;;;;2.87;1.20;;;3.80;99.90;;;;;;5006246;28;20374;-83
2021/04/17 02:45:09;;;;;;;1.10;1.00;;;3.70;99.90;;;;;;5006474;28;20187;-83
2021/04/17 02:47:35;;;;;;;1.80;1.10;;;3.80;99.90;;;;;;5006679;28;20183;-83
2021/04/17 02:50:00;;;;;;;0.90;0.90;;;3.80;99.90;;;;;;5006471;28;21202;-84
2021/04/17 02:52:26;;;;;;;0.73;0.70;;;3.80;99.90;;;;;;5006117;28;20191;-83
2021/04/17 02:54:51;;;;;;;0.67;0.50;;;3.70;99.90;;;;;;5006380;28;20649;-84
2021/04/17 02:57:17;;;;;;;1.40;1.00;;;3.90;99.90;;;;;;5006123;28;20701;-82
2021/04/17 02:59:43;;;;;;;1.27;0.50;;;3.90;99.90;;;;;;5007370;28;20223;-84
2021/04/17 03:02:08;;;;;;;0.50;0.50;;;4.00;99.90;;;;;;5007520;28;20208;-83
2021/04/17 03:04:34;;;;;;;1.93;0.80;;;3.90;99.90;;;;;;5007231;28;20188;-84
2021/04/17 03:07:00;;;;;;;1.70;0.60;;;3.90;99.90;;;;;;5007548;28;20207;-84
2021/04/17 03:09:25;;;;;;;1.07;0.87;;;3.90;99.90;;;;;;5005599;28;21046;-83
2021/04/17 03:11:51;;;;;;;1.83;0.77;;;3.90;99.90;;;;;;5006290;28;20218;-76
2021/04/17 03:14:16;;;;;;;2.30;0.70;;;3.80;99.90;;;;;;5004738;28;20192;-83
2021/04/17 03:16:42;;;;;;;1.10;0.80;;;3.80;99.90;;;;;;5006342;28;20821;-84
2021/04/17 03:19:09;;;;;;;1.10;0.70;;;3.80;99.90;;;;;;5005504;28;20701;-83
2021/04/17 03:21:34;;;;;;;1.03;0.53;;;3.90;99.90;;;;;;5005718;28;20195;-83
2021/04/17 03:24:00;;;;;;;1.53;1.20;;;3.90;99.90;;;;;;5005294;28;20608;-83
2021/04/17 03:26:25;;;;;;;0.47;0.47;;;3.90;99.90;;;;;;5005010;28;20187;-84
2021/04/17 03:28:51;;;;;;;1.83;0.93;;;3.90;99.90;;;;;;5005179;28;20265;-83
2021/04/17 03:31:17;;;;;;;1.10;0.60;;;3.90;99.90;;;;;;5007834;28;20180;-84
2021/04/17 03:33:42;;;;;;;0.93;0.80;;;3.90;99.90;;;;;;5005753;28;20198;-82
2021/04/17 03:36:08;;;;;;;0.77;0.63;;;4.00;99.90;;;;;;5005228;28;20183;-81
2021/04/17 03:38:34;;;;;;;1.10;0.97;;;4.00;99.90;;;;;;5004269;28;20203;-79
2021/04/17 03:41:00;;;;;;;2.13;0.80;;;4.10;99.90;;;;;;5007453;28;20873;-81
2021/04/17 03:43:26;;;;;;;1.40;0.80;;;4.20;99.90;;;;;;5009545;28;20190;-81
2021/04/17 03:45:52;;;;;;;1.90;1.10;;;4.20;99.90;;;;;;5009643;28;20180;-81
2021/04/17 03:48:17;;;;;;;1.07;0.70;;;4.20;99.90;;;;;;5008212;28;20195;-80
2021/04/17 03:50:43;;;;;;;1.43;0.80;;;4.20;99.90;;;;;;5008496;28;20211;-80
2021/04/17 03:53:08;;;;;;;0.77;0.50;;;4.10;99.90;;;;;;5007824;28;20196;-80
2021/04/17 03:55:35;;;;;;;0.63;0.53;;;4.20;99.90;;;;;;5007999;28;20188;-81
2021/04/17 03:58:00;;;;;;;1.37;0.80;;;4.20;99.90;;;;;;5007770;28;20271;-80
2021/04/17 04:00:26;;;;;;;0.40;0.40;;;4.10;99.90;;;;;;5009332;28;20291;-80
2021/04/17 04:02:51;;;;;;;1.00;0.57;;;4.10;99.90;;;;;;5009137;28;20179;-81
2021/04/17 04:05:17;;;;;;;0.83;0.83;;;4.10;99.90;;;;;;5007641;28;20652;-80
2021/04/17 04:07:43;;;;;;;1.43;0.80;;;4.20;99.90;;;;;;5009292;28;20676;-80
2021/04/17 04:10:10;;;;;;;1.37;0.87;;;4.10;99.90;;;;;;5008842;28;20239;-81
2021/04/17 04:12:36;;;;;;;0.57;0.57;;;4.20;99.90;;;;;;5007334;28;20238;-79
2021/04/17 04:15:02;;;;;;;0.60;0.60;;;4.20;99.90;;;;;;5007111;28;20187;-80
2021/04/17 04:17:28;;;;;;;0.77;0.60;;;4.20;99.90;;;;;;5007606;28;20494;-80
2021/04/17 04:19:53;;;;;;;0.70;0.47;;;4.20;99.90;;;;;;5007261;28;20211;-79
2021/04/17 04:22:19;;;;;;;0.40;0.40;;;4.10;99.90;;;;;;5007458;28;20278;-80
2021/04/17 04:24:44;;;;;;;0.93;0.60;;;4.10;99.90;;;;;;5006880;28;20253;-80
2021/04/17 04:27:10;;;;;;;0.70;0.60;;;4.10;99.90;;;;;;5007363;28;20187;-80
2021/04/17 04:29:36;;;;;;;0.57;0.57;;;4.20;99.90;;;;;;5006627;28;20639;-81
2021/04/17 04:32:02;;;;;;;0.80;0.60;;;4.20;99.90;;;;;;5007037;28;20192;-81
2021/04/17 04:34:28;;;;;;;0.40;0.40;;;4.30;99.90;;;;;;5007696;28;20246;-81
2021/04/17 04:36:53;;;;;;;0.47;0.40;;;4.10;99.90;;;;;;5008537;28;21173;-80
2021/04/17 04:39:19;;;;;;;1.10;0.70;;;4.00;99.90;;;;;;5006878;28;20220;-80
2021/04/17 04:41:44;;;;;;;3.03;1.50;;;4.00;99.90;;;;;;5007213;28;20183;-80
2021/04/17 04:44:10;;;;;;;1.20;0.80;;;4.20;99.90;;;;;;5008766;28;20187;-80
2021/04/17 04:46:36;;;;;;;0.60;0.60;;;4.10;99.90;;;;;;5006656;28;20229;-81
2021/04/17 04:49:01;;;;;;;0.83;0.70;;;4.10;99.90;;;;;;5008348;28;21044;-80
2021/04/17 04:51:27;;;;;;;1.07;0.77;;;4.20;99.90;;;;;;5006437;28;20278;-80
2021/04/17 04:53:53;;;;;;;1.27;0.90;;;4.20;99.90;;;;;;4999014;28;20184;-80
2021/04/17 04:56:19;;;;;;;1.00;0.90;;;4.20;99.90;;;;;;5022492;28;20199;-81
2021/04/17 04:58:44;;;;;;;1.17;1.03;;;4.10;99.90;;;;;;5008350;28;20261;-80
2021/04/17 05:01:10;;;;;;;1.00;0.83;;;4.20;99.90;;;;;;5006518;28;20180;-80
2021/04/17 05:03:35;;;;;;;0.87;0.80;;;4.20;99.90;;;;;;5006921;28;20180;-80
2021/04/17 05:06:01;;;;;;;0.67;0.67;;;4.20;99.90;;;;;;5006352;28;20804;-80
2021/04/17 05:08:27;;;;;;;1.87;1.10;;;4.20;99.90;;;;;;5006615;28;20213;-81
2021/04/17 05:10:52;;;;;;;2.03;1.10;;;4.20;99.90;;;;;;5007443;28;20735;-80
2021/04/17 05:13:18;;;;;;;5.50;1.13;;;4.10;99.90;;;;;;5007721;28;20684;-81
2021/04/17 05:15:44;;;;;;;2.20;1.10;;;4.20;99.90;;;;;;5007244;28;20199;-80
2021/04/17 05:18:10;;;;;;;1.60;1.30;;;4.20;99.90;;;;;;5007476;28;20261;-80
2021/04/17 05:20:36;;;;;;;1.07;0.97;;;4.20;99.90;;;;;;5007795;28;20208;-80
2021/04/17 05:23:01;;;;;;;1.87;0.80;;;4.30;99.90;;;;;;5006323;28;20203;-80
2021/04/17 05:25:27;;;;;;;2.07;0.80;;;4.30;99.90;;;;;;5005762;28;21116;-80
2021/04/17 05:27:53;;;;;;;1.67;0.87;;;4.30;99.90;;;;;;5005753;28;20267;-80
2021/04/17 05:30:19;;;;;;;0.67;0.60;;;4.40;99.90;;;;;;5005654;28;20267;-80
2021/04/17 05:32:44;;;;;;;1.23;0.67;;;4.40;99.90;;;;;;5006387;28;20242;-83
2021/04/17 05:35:10;;;;;;;0.80;0.60;;;4.40;99.90;;;;;;5005252;28;20195;-81
2021/04/17 05:37:36;;;;;;;0.60;0.60;;;4.40;99.90;;;;;;5006215;28;20191;-80
2021/04/17 05:40:03;;;;;;;1.40;1.10;;;4.40;99.90;;;;;;5006239;28;20230;-81
2021/04/17 05:42:29;;;;;;;0.70;0.60;;;4.40;99.90;;;;;;5022414;28;20238;-80
2021/04/17 05:44:54;;;;;;;1.33;0.70;;;4.50;99.90;;;;;;5006805;28;20258;-79
2021/04/17 05:47:20;;;;;;;0.63;0.63;;;4.40;99.90;;;;;;5005735;28;20273;-80
2021/04/17 05:49:46;;;;;;;1.17;0.97;;;4.50;99.90;;;;;;5007139;28;20684;-80
2021/04/17 05:52:11;;;;;;;0.73;0.60;;;4.60;99.90;;;;;;5007618;28;20293;-80
2021/04/17 05:54:38;;;;;;;1.53;0.83;;;4.60;99.90;;;;;;5006346;28;20191;-79
2021/04/17 05:57:04;;;;;;;0.73;0.73;;;4.60;99.90;;;;;;5005710;28;20248;-80
2021/04/17 05:59:29;;;;;;;2.30;0.90;;;4.60;99.90;;;;;;5005657;28;20215;-80
2021/04/17 06:01:55;;;;;;;1.10;0.97;;;4.60;99.90;;;;;;5004999;28;20267;-79
2021/04/17 06:04:21;;;;;;;0.97;0.70;;;4.60;99.90;;;;;;5006706;28;20190;-80
2021/04/17 06:06:46;;;;;;;1.43;0.80;;;4.60;99.90;;;;;;5005684;28;20265;-79
2021/04/17 06:09:13;;;;;;;2.00;0.70;;;4.70;99.90;;;;;;5005772;28;20219;-80
2021/04/17 06:11:40;;;;;;;0.87;0.77;;;4.80;99.90;;;;;;5005337;28;20223;-79
2021/04/17 06:14:05;;;;;;;5.47;1.30;;;4.70;99.90;;;;;;5006655;28;20285;-80
2021/04/17 06:16:31;;;;;;;0.90;0.90;;;4.80;99.90;;;;;;5005904;28;20845;-82
2021/04/17 06:18:57;;;;;;;1.70;1.60;;;4.80;99.90;;;;;;5005101;28;20215;-80
2021/04/17 06:21:22;;;;;;;3.13;1.53;;;4.90;99.90;;;;;;5006311;28;20558;-80
2021/04/17 06:23:48;;;;;;;1.50;1.13;;;5.00;99.90;;;;;;5005896;28;20187;-80
2021/04/17 06:26:13;;;;;;;2.33;1.50;;;5.00;99.90;;;;;;5004577;28;20198;-80
2021/04/17 06:28:39;;;;;;;1.70;1.10;;;5.00;99.90;;;;;;5005717;28;20188;-80
2021/04/17 06:31:05;;;;;;;1.67;1.30;;;5.10;99.90;;;;;;5005129;28;20678;-79
2021/04/17 06:33:31;;;;;;;2.17;1.27;;;5.10;99.90;;;;;;5006685;28;20191;-80
2021/04/17 06:35:58;;;;;;;6.27;1.10;;;5.10;99.90;;;;;;5004971;28;20192;-80
2021/04/17 06:38:23;;;;;;;3.30;1.33;;;5.10;99.90;;;;;;5005642;28;20290;-80
2021/04/17 06:40:52;;;;;;;1.53;1.20;;;5.20;99.90;;;;;;5004585;28;20502;-80
2021/04/17 06:43:22;;;;;;;1.23;1.00;;;5.30;99.90;;;;;;5005269;28;20183;-80
2021/04/17 06:45:51;;;;;;;0.50;0.50;;;5.40;99.90;;;;;;5005887;28;20176;-80
2021/04/17 06:48:17;;;;;;;0.97;0.83;;;5.60;99.90;;;;;;5004858;28;20661;-80
2021/04/17 06:50:43;;;;;;;1.03;0.80;;;5.70;99.90;;;;;;5005134;28;21194;-79
2021/04/17 06:53:11;;;;;;;1.03;0.57;;;5.70;99.90;;;;;;5017513;28;20195;-80
2021/04/17 06:55:38;;;;;;;0.67;0.67;;;5.70;99.90;;;;;;5004819;28;20184;-80
2021/04/17 06:58:04;;;;;;;2.27;1.03;;;5.80;99.90;;;;;;5004362;28;20183;-80
2021/04/17 07:00:30;;;;;;;1.20;1.10;;;5.80;99.90;;;;;;5004848;28;20281;-79
2021/04/17 07:02:56;;;;;;;0.83;0.80;;;6.00;99.90;;;;;;5006993;28;20200;-82
2021/04/17 07:05:21;;;;;;;1.50;1.10;;;6.00;99.90;;;;;;5008836;28;20187;-80
2021/04/17 07:07:47;;;;;;;2.50;1.33;;;6.00;99.90;;;;;;5008482;28;20214;-79
2021/04/17 07:10:15;;;;;;;2.10;0.73;;;6.00;99.90;;;;;;5020294;28;20226;-80
2021/04/17 07:12:44;;;;;;;1.90;0.67;;;6.10;99.90;;;;;;5004615;28;20191;-80
2021/04/17 07:15:11;;;;;;;1.00;0.90;;;6.30;99.90;;;;;;5008220;28;20273;-79
2021/04/17 07:17:37;;;;;;;1.80;1.20;;;6.50;99.90;;;;;;5008387;28;20213;-79
2021/04/17 07:20:05;;;;;;;1.13;0.77;;;6.60;99.90;;;;;;5008215;28;20297;-80
2021/04/17 07:22:34;;;;;;;1.47;0.93;;;6.60;99.90;;;;;;5008448;28;20270;-80
2021/04/17 07:25:06;;;;;;;1.57;0.97;;;6.60;99.90;;;;;;5007941;28;20168;-80
2021/04/17 07:27:43;;;;;;;1.67;0.93;;;6.70;99.90;;;;;;5001211;28;20184;-80
2021/04/17 07:30:14;;;;;;;1.20;0.97;;;6.70;99.90;;;;;;5008372;28;20207;-80
2021/04/17 07:32:41;;;;;;;0.73;0.50;;;6.70;99.90;;;;;;5009283;28;20222;-81
2021/04/17 07:35:15;;;;;;;4.47;1.47;;;7.00;99.90;;;;;;5010034;28;20184;-81
2021/04/17 07:37:44;;;;;;;2.03;1.60;;;7.20;99.90;;;;;;5009506;28;20689;-81
2021/04/17 07:40:15;;;;;;;1.63;1.37;;;7.40;99.90;;;;;;5009165;28;20238;-78
2021/04/17 07:42:42;;;;;;;1.50;1.40;;;7.60;99.90;;;;;;5008340;28;20179;-80
2021/04/17 07:45:21;;;;;;;0.80;0.80;;;7.60;99.90;;;;;;5009129;28;20180;-81
2021/04/17 07:47:47;;;;;;;0.53;0.53;;;7.80;99.90;;;;;;5008963;28;20255;-80
2021/04/17 07:50:13;;;;;;;1.23;0.90;;;7.90;99.90;;;;;;5005979;28;20270;-81
2021/04/17 07:52:39;;;;;;;2.50;0.80;;;7.80;99.90;;;;;;5006413;28;20215;-80
2021/04/17 07:55:07;;;;;;;1.07;0.97;;;8.00;99.90;;;;;;5004855;28;20234;-80
2021/04/17 07:57:37;;;;;;;1.23;0.83;;;8.20;99.90;;;;;;5004236;28;20195;-80
2021/04/17 08:00:06;;;;;;;0.93;0.70;;;8.40;99.90;;;;;;5003701;28;20313;-80
2021/04/17 08:02:32;;;;;;;1.37;1.20;;;8.30;99.90;;;;;;5004405;28;20234;-80
2021/04/17 08:04:59;;;;;;;1.23;1.13;;;8.10;99.90;;;;;;5004135;28;20222;-80
2021/04/17 08:07:27;;;;;;;1.50;1.17;;;7.90;99.90;;;;;;5004508;28;20186;-79
2021/04/17 08:09:56;;;;;;;1.20;1.00;;;8.00;99.90;;;;;;5005463;28;20216;-80
2021/04/17 08:12:23;;;;;;;1.00;0.87;;;8.00;99.90;;;;;;5004225;28;20215;-80
2021/04/17 08:14:49;;;;;;;4.13;1.67;;;8.10;99.90;;;;;;5003764;28;20183;-80
2021/04/17 08:17:15;;;;;;;2.07;1.20;;;8.40;99.90;;;;;;5003903;28;20258;-80
2021/04/17 08:19:41;;;;;;;2.63;1.03;;;8.40;99.90;;;;;;5003643;28;20701;-80
2021/04/17 08:22:06;;;;;;;1.73;1.00;;;8.40;99.90;;;;;;5004005;28;20516;-80
2021/04/17 08:24:33;;;;;;;1.90;1.80;;;8.50;99.90;;;;;;5005264;28;20187;-80
2021/04/17 08:27:00;;;;;;;1.33;0.80;;;8.70;99.90;;;;;;5007985;28;20180;-80
2021/04/17 08:29:47;;;;;;;1.07;0.97;;;8.90;99.90;;;;;;5006548;28;20211;-78
2021/04/17 08:32:35;;;;;;;1.30;1.10;;;9.10;99.90;;;;;;5004885;28;20211;-80
2021/04/17 08:35:08;;;;;;;1.37;0.80;;;9.10;99.90;;;;;;5002583;28;20187;-80
2021/04/17 08:37:55;;;;;;;0.93;0.80;;;9.10;99.90;;;;;;5003465;28;20729;-80
2021/04/17 08:40:37;;;;;;;1.00;0.90;;;9.30;99.90;;;;;;5003202;28;20219;-80
2021/04/17 08:43:15;;;;;;;0.97;0.93;;;9.40;99.90;;;;;;4990479;28;20198;-80
2021/04/17 08:46:00;;;;;;;0.90;0.90;;;9.60;99.90;;;;;;4996655;28;20215;-80
2021/04/17 08:48:41;;;;;;;0.90;0.80;;;10.00;99.90;;;;;;5019692;28;20551;-80
2021/04/17 08:51:22;;;;;;;1.80;1.20;;;9.60;99.90;;;;;;5003379;28;20183;-80
2021/04/17 08:54:10;;;;;;;1.33;1.20;;;9.60;99.90;;;;;;5004866;28;20522;-80
2021/04/17 08:56:47;;;;;;;1.20;1.10;;;9.60;99.90;;;;;;5019600;28;20187;-80
2021/04/17 08:59:17;;;;;;;1.10;1.00;;;9.70;99.90;;;;;;5020205;28;20211;-81
2021/04/17 09:01:44;;;;;;;1.17;1.00;;;9.90;99.90;;;;;;5010379;28;20221;-81
2021/04/17 09:04:11;;;;;;;1.10;0.77;;;10.30;99.90;;;;;;5010586;28;20179;-81
2021/04/17 09:06:43;;;;;;;1.00;0.80;;;10.30;99.90;;;;;;5014264;28;21440;-81
2021/04/17 09:09:21;;;;;;;1.13;0.90;;;10.60;99.90;;;;;;5012672;28;20936;-81
2021/04/17 09:11:48;;;;;;;1.80;1.47;;;10.90;99.90;;;;;;5014733;28;20226;-81
2021/04/17 09:14:36;;;;;;;1.13;0.73;;;11.00;99.90;;;;;;5013856;28;20268;-82
2021/04/17 09:17:07;;;;;;;1.10;1.00;;;11.20;99.90;;;;;;5029636;28;20229;-82
2021/04/17 09:19:39;;;;;;;2.40;0.83;;;11.30;99.90;;;;;;5014361;28;20298;-81
2021/04/17 09:22:23;;;;;;;3.73;1.53;;;11.00;99.90;;;;;;5024104;28;20185;-81
2021/04/17 09:24:53;;;;;;;2.30;1.50;;;10.80;99.90;;;;;;5007838;28;20275;-82
2021/04/17 09:27:23;;;;;;;1.00;0.90;;;10.60;99.90;;;;;;5005656;28;20188;-83
2021/04/17 09:30:07;;;;;;;0.90;0.77;;;10.70;99.90;;;;;;5005910;28;20322;-82
2021/04/17 09:32:37;;;;;;;1.13;0.87;;;10.70;99.90;;;;;;5021990;28;20286;-82
2021/04/17 09:35:19;;;;;;;0.90;0.90;;;10.70;99.90;;;;;;5007469;28;20278;-82
2021/04/17 09:38:05;;;;;;;1.40;0.73;;;10.80;99.90;;;;;;5004588;28;20202;-83
2021/04/17 09:40:49;;;;;;;1.23;0.83;;;10.40;99.90;;;;;;5007662;28;20285;-83
2021/04/17 09:43:31;;;;;;;1.63;1.00;;;10.30;99.90;;;;;;5005367;28;20422;-83
2021/04/17 09:46:00;;;;;;;1.43;0.93;;;10.30;99.90;;;;;;5006536;28;20510;-83
2021/04/17 09:48:26;;;;;;;1.43;1.17;;;10.30;99.90;;;;;;5021825;28;20191;-82
2021/04/17 09:50:57;;;;;;;1.30;0.80;;;10.40;99.90;;;;;;5022170;28;20707;-83
2021/04/17 09:53:34;;;;;;;1.10;0.70;;;10.30;99.90;;;;;;5005322;28;20191;-83
2021/04/17 09:56:12;;;;;;;2.17;1.20;;;10.40;99.90;;;;;;5005073;28;20191;-82
2021/04/17 09:58:42;;;;;;;3.67;1.27;;;10.30;99.90;;;;;;5020840;28;20682;-81
2021/04/17 10:01:15;;;;;;;1.30;1.00;;;10.20;99.90;;;;;;5004645;28;20248;-81
2021/04/17 10:03:44;;;;;;;2.63;1.10;;;10.00;99.90;;;;;;5005265;28;20199;-81
2021/04/17 10:06:36;;;;;;;0.90;0.90;;;10.10;99.90;;;;;;5006038;28;20234;-81
2021/04/17 10:09:07;;;;;;;1.80;1.03;;;10.30;99.90;;;;;;5004188;28;20221;-81
2021/04/17 10:11:38;;;;;;;1.20;0.80;;;10.20;99.90;;;;;;5019984;28;20184;-83
2021/04/17 10:14:05;;;;;;;1.80;1.07;;;10.30;99.90;;;;;;5004727;28;20179;-81
2021/04/17 10:16:40;;;;;;;1.20;1.00;;;10.30;99.90;;;;;;5004573;28;20210;-81
2021/04/17 10:19:16;;;;;;;1.20;0.93;;;10.10;99.90;;;;;;5003654;28;20215;-81
2021/04/17 10:21:45;;;;;;;1.70;1.10;;;10.10;99.90;;;;;;5005120;28;20530;-80
2021/04/17 10:24:22;;;;;;;1.30;0.97;;;10.20;99.90;;;;;;5002486;28;20179;-81
2021/04/17 10:26:52;;;;;;;1.00;0.90;;;10.50;99.90;;;;;;5003089;28;20233;-81
2021/04/17 10:29:19;;;;;;;1.20;1.07;;;10.70;99.90;;;;;;5004616;28;20622;-81
2021/04/17 10:31:46;;;;;;;1.07;0.80;;;10.90;99.90;;;;;;5003333;28;20215;-82
2021/04/17 10:34:21;;;;;;;1.40;1.10;;;11.10;99.90;;;;;;5004526;28;20214;-80
2021/04/17 10:36:55;;;;;;;3.33;1.60;;;11.10;99.90;;;;;;5002980;28;20221;-81
2021/04/17 10:39:21;;;;;;;1.30;0.97;;;11.10;99.90;;;;;;5002553;28;20237;-82
2021/04/17 10:42:00;;;;;;;1.67;1.37;;;11.30;99.90;;;;;;5003314;28;20556;-81
2021/04/17 10:44:27;;;;;;;1.30;1.20;;;11.30;99.90;;;;;;5002835;28;20190;-81
2021/04/17 10:46:52;;;;;;;3.33;1.40;;;11.10;99.90;;;;;;5004157;28;20203;-81
2021/04/17 10:49:30;;;;;;;1.50;1.27;;;11.20;99.90;;;;;;5004085;28;20653;-81
2021/04/17 10:51:56;;;;;;;1.13;0.90;;;10.80;99.90;;;;;;5002785;28;20190;-83
2021/04/17 10:54:23;;;;;;;1.97;1.20;;;10.60;99.90;;;;;;5002663;28;20330;-81
2021/04/17 10:56:59;;;;;;;1.90;1.37;;;10.70;99.90;;;;;;5003964;28;20278;-81
2021/04/17 10:59:25;;;;;;;0.73;0.73;;;10.70;99.90;;;;;;5001997;28;20241;-81
2021/04/17 11:01:51;;;;;;;2.43;1.47;;;10.60;99.90;;;;;;5002776;28;20654;-81
2021/04/17 11:04:16;;;;;;;1.58;1.17;;;10.70;99.90;;;;;;5001753;28;20615;-81
2021/04/17 11:06:47;;;;;;;1.03;0.93;;;10.80;99.90;;;;;;5003777;28;20606;-81
2021/04/17 11:09:18;;;;;;;1.97;1.20;;;10.80;99.90;;;;;;5001930;28;20219;-81
2021/04/17 11:12:00;;;;;;;2.90;1.03;;;10.70;99.90;;;;;;5003561;28;20191;-82
2021/04/17 11:14:28;;;;;;;0.70;0.60;;;10.60;99.90;;;;;;5002182;28;20573;-80
2021/04/17 11:16:55;;;;;;;3.07;1.00;;;10.30;99.90;;;;;;5001958;28;20663;-81
2021/04/17 11:19:24;;;;;;;0.70;0.60;;;10.30;99.90;;;;;;5003066;28;20299;-81
2021/04/17 11:22:10;;;;;;;1.57;0.70;;;10.20;99.90;;;;;;5003180;28;20192;-80
2021/04/17 11:24:37;;;;;;;2.10;1.10;;;10.20;99.90;;;;;;5003014;28;20254;-81
2021/04/17 11:27:03;;;;;;;1.27;0.90;;;10.30;99.90;;;;;;5003693;28;20923;-81
2021/04/17 11:29:29;;;;;;;1.40;0.97;;;10.40;99.90;;;;;;5003089;28;20257;-81
2021/04/17 11:31:54;;;;;;;0.90;0.80;;;10.20;99.90;;;;;;5002250;28;20214;-80
2021/04/17 11:34:20;;;;;;;1.20;0.90;;;10.20;99.90;;;;;;5002484;28;20187;-81
2021/04/17 11:36:46;;;;;;;1.33;0.97;;;10.20;99.90;;;;;;5002087;28;20664;-82
2021/04/17 11:39:12;;;;;;;0.90;0.80;;;10.40;99.90;;;;;;5001659;28;20211;-81
2021/04/17 11:41:38;;;;;;;1.67;0.97;;;10.40;99.90;;;;;;5001849;28;20275;-81
2021/04/17 11:44:05;;;;;;;1.93;1.10;;;10.40;99.90;;;;;;5001654;28;20270;-81
2021/04/17 11:46:31;;;;;;;1.53;0.80;;;10.40;99.90;;;;;;5001887;28;20179;-81
2021/04/17 11:48:56;;;;;;;0.93;0.70;;;10.20;99.90;;;;;;5001666;28;20210;-80
2021/04/17 11:51:22;;;;;;;1.37;1.00;;;10.10;99.90;;;;;;5001788;28;20188;-81
2021/04/17 11:53:48;;;;;;;1.53;1.10;;;10.20;99.90;;;;;;5003045;28;20270;-81
2021/04/17 11:56:14;;;;;;;1.50;1.30;;;10.50;99.90;;;;;;5001456;28;20439;-81
2021/04/17 11:58:40;;;;;;;1.20;1.10;;;10.40;99.90;;;;;;5001707;28;20253;-80
2021/04/17 12:01:06;;;;;;;2.50;1.87;;;10.50;99.90;;;;;;5004083;28;20182;-81
2021/04/17 12:03:32;;;;;;;2.20;1.67;;;10.50;99.90;;;;;;5004656;28;20184;-81
2021/04/17 12:05:58;;;;;;;3.50;2.00;;;10.40;99.90;;;;;;5004863;28;20184;-80
2021/04/17 12:08:24;;;;;;;3.33;0.90;;;10.50;99.90;;;;;;5004912;28;20462;-81
2021/04/17 12:10:51;;;;;;;3.73;1.43;;;10.70;99.90;;;;;;5005315;28;20199;-81
2021/04/17 12:13:17;;;;;;;1.53;1.40;;;10.70;99.90;;;;;;5004332;28;20241;-81
2021/04/17 12:15:46;;;;;;;2.73;1.40;;;10.80;99.90;;;;;;5004561;28;20259;-81
2021/04/17 12:18:12;;;;;;;1.57;1.43;;;11.00;99.90;;;;;;5004072;28;20238;-81
2021/04/17 12:20:38;;;;;;;1.03;0.90;;;11.10;99.90;;;;;;5005029;28;20444;-81
2021/04/17 12:23:04;;;;;;;1.80;1.43;;;11.30;99.90;;;;;;5004518;28;20187;-82
2021/04/17 12:25:30;;;;;;;1.47;1.30;;;11.50;99.90;;;;;;5004184;28;20195;-81
2021/04/17 12:27:55;;;;;;;1.87;1.20;;;11.90;99.90;;;;;;5005350;28;20191;-77
2021/04/17 12:30:22;;;;;;;4.67;1.80;;;12.20;99.90;;;;;;5008898;28;20368;-77
2021/04/17 12:32:47;;;;;;;1.40;1.30;;;12.30;99.90;;;;;;5010980;28;20676;-79
2021/04/17 12:35:15;;;;;;;3.63;1.30;;;11.70;99.90;;;;;;5009887;28;20192;-79
2021/04/17 12:37:41;;;;;;;3.17;1.53;;;11.50;99.90;;;;;;5009896;28;20195;-81
2021/04/17 12:40:08;;;;;;;1.20;1.10;;;11.50;99.90;;;;;;5007463;28;20215;-79
2021/04/17 12:42:34;;;;;;;0.83;0.77;;;11.30;99.90;;;;;;5009201;28;20277;-81
2021/04/17 12:45:00;;;;;;;2.13;1.03;;;11.40;99.90;;;;;;5007945;28;20662;-82
2021/04/17 12:47:26;;;;;;;1.40;1.30;;;11.50;99.90;;;;;;5006428;28;20259;-80
2021/04/17 12:49:51;;;;;;;0.83;0.83;;;11.50;99.90;;;;;;5007898;28;20211;-80
2021/04/17 12:52:17;;;;;;;1.40;1.10;;;11.50;99.90;;;;;;5007286;28;20226;-77
2021/04/17 12:54:43;;;;;;;1.50;0.83;;;11.50;99.90;;;;;;5008730;28;20192;-76
2021/04/17 12:57:08;;;;;;;2.07;1.23;;;11.50;99.90;;;;;;5007295;28;20192;-77
2021/04/17 12:59:34;;;;;;;1.27;0.90;;;11.60;99.90;;;;;;5006682;28;21320;-76